createdAt,value
2023-02-07T00:00:20.059Z,31.83
2023-02-07T00:01:25.922Z,28.50
2023-02-07T00:02:28.169Z,25.00
2023-02-07T00:03:32.653Z,37.33
2023-02-07T00:04:37.222Z,58.63
2023-02-07T00:05:39.550Z,42.97
2023-02-07T00:06:44.353Z,28.23
2023-02-07T00:07:46.310Z,32.05
2023-02-07T00:08:51.640Z,28.10
2023-02-07T00:09:57.713Z,33.53
2023-02-07T00:11:07.323Z,32.30
2023-02-07T00:12:09.263Z,30.70
2023-02-07T00:13:13.826Z,35.65
2023-02-07T00:14:15.732Z,31.17
2023-02-07T00:15:20.283Z,30.65
2023-02-07T00:16:23.141Z,31.15
2023-02-07T00:17:27.980Z,31.23
2023-02-07T00:18:30.720Z,32.67
2023-02-07T00:19:35.256Z,32.63
2023-02-07T00:20:37.414Z,47.92
2023-02-07T00:21:42.496Z,46.95
2023-02-07T00:22:45.084Z,39.80
2023-02-07T00:23:50.171Z,39.08
2023-02-07T00:24:52.255Z,32.45
2023-02-07T00:25:59.527Z,33.65
2023-02-07T00:27:01.566Z,33.38
2023-02-07T00:28:06.407Z,35.92
2023-02-07T00:29:08.441Z,31.08
2023-02-07T00:30:14.581Z,38.50
2023-02-07T00:31:18.933Z,39.58
2023-02-07T00:32:23.565Z,36.50
2023-02-07T00:33:25.648Z,41.22
2023-02-07T00:34:31.810Z,40.63
2023-02-07T00:35:33.814Z,55.35
2023-02-07T00:36:39.366Z,51.88
2023-02-07T00:37:44.111Z,87.65
2023-02-07T00:38:47.109Z,53.88
2023-02-07T00:39:51.757Z,73.22
2023-02-07T00:40:56.504Z,55.88
2023-02-07T00:42:01.220Z,55.95
2023-02-07T00:43:03.415Z,52.80
2023-02-07T00:44:08.851Z,46.72
2023-02-07T00:45:10.928Z,45.65
2023-02-07T00:46:15.708Z,55.03
2023-02-07T00:47:17.837Z,54.28
2023-02-07T00:48:22.399Z,54.90
2023-02-07T00:49:24.454Z,62.30
2023-02-07T00:50:28.986Z,56.55
2023-02-07T00:51:31.781Z,58.00
2023-02-07T00:52:36.920Z,95.22
2023-02-07T00:53:39.582Z,58.72
2023-02-07T00:54:44.205Z,71.45
2023-02-07T00:55:46.368Z,61.08
2023-02-07T00:56:53.713Z,58.65
2023-02-07T00:57:55.797Z,96.95
2023-02-07T00:59:00.631Z,62.63
2023-02-07T01:00:02.692Z,56.45
2023-02-07T01:01:07.631Z,71.93
2023-02-07T01:02:09.699Z,63.38
2023-02-07T01:03:14.528Z,58.47
2023-02-07T01:04:16.521Z,67.38
2023-02-07T01:05:21.324Z,70.15
2023-02-07T01:06:23.459Z,74.05
2023-02-07T01:07:28.177Z,86.72
2023-02-07T01:08:30.252Z,74.78
2023-02-07T01:09:35.138Z,79.15
2023-02-07T01:10:39.789Z,71.18
2023-02-07T01:11:44.360Z,81.20
2023-02-07T01:12:49.024Z,65.57
2023-02-07T01:13:53.603Z,70.57
2023-02-07T01:14:55.617Z,101.88
2023-02-07T01:16:00.213Z,62.78
2023-02-07T01:17:02.259Z,64.07
2023-02-07T01:18:08.000Z,53.90
2023-02-07T01:19:11.432Z,58.67
2023-02-07T01:20:16.379Z,73.75
2023-02-07T01:21:20.617Z,63.53
2023-02-07T01:22:25.282Z,82.40
2023-02-07T01:23:27.420Z,65.72
2023-02-07T01:24:32.580Z,67.88
2023-02-07T01:25:34.641Z,70.70
2023-02-07T01:26:40.251Z,56.33
2023-02-07T01:27:42.281Z,59.08
2023-02-07T01:28:49.467Z,57.97
2023-02-07T01:29:51.729Z,57.88
2023-02-07T01:30:56.353Z,57.17
2023-02-07T01:31:58.468Z,61.00
2023-02-07T01:33:03.404Z,65.10
2023-02-07T01:34:08.023Z,48.45
2023-02-07T01:35:10.147Z,55.97
2023-02-07T01:36:17.002Z,62.08
2023-02-07T01:37:18.990Z,71.57
2023-02-07T01:38:23.520Z,62.90
2023-02-07T01:39:25.494Z,67.28
2023-02-07T01:40:30.207Z,64.50
2023-02-07T01:41:35.501Z,76.45
2023-02-07T01:42:37.689Z,58.58
2023-02-07T01:44:05.618Z,60.97
2023-02-07T01:45:22.664Z,58.72
2023-02-07T01:46:27.507Z,60.42
2023-02-07T01:47:30.439Z,53.85
2023-02-07T01:48:38.122Z,54.20
2023-02-07T01:49:40.049Z,56.15
2023-02-07T01:50:49.391Z,59.15
2023-02-07T01:51:56.388Z,51.60
2023-02-07T01:53:03.358Z,66.55
2023-02-07T01:54:08.333Z,57.95
2023-02-07T01:55:15.813Z,52.85
2023-02-07T01:56:30.829Z,51.55
2023-02-07T01:57:36.641Z,56.95
2023-02-07T01:58:39.230Z,55.88
2023-02-07T01:59:47.962Z,49.65
2023-02-07T02:00:51.368Z,61.28
2023-02-07T02:02:02.199Z,53.10
2023-02-07T02:03:05.509Z,59.63
2023-02-07T02:04:10.326Z,62.30
2023-02-07T02:05:12.978Z,55.45
2023-02-07T02:06:18.941Z,67.75
2023-02-07T02:07:21.970Z,66.15
2023-02-07T02:08:27.737Z,70.50
2023-02-07T02:09:30.049Z,65.95
2023-02-07T02:10:51.469Z,68.43
2023-02-07T02:12:18.490Z,54.15
2023-02-07T02:13:31.221Z,68.05
2023-02-07T02:14:50.916Z,99.55
2023-02-07T02:16:04.367Z,70.97
2023-02-07T02:17:15.277Z,95.55
2023-02-07T02:19:04.165Z,79.32
2023-02-07T02:20:39.405Z,89.28
2023-02-07T02:22:23.367Z,87.95
2023-02-07T02:23:41.468Z,86.05
2023-02-07T02:25:15.688Z,72.63
2023-02-07T02:26:49.427Z,114.15
2023-02-07T02:28:21.993Z,75.15
2023-02-07T02:29:42.134Z,133.35
2023-02-07T02:31:06.874Z,94.15
2023-02-07T02:32:37.078Z,71.00
2023-02-07T02:33:53.289Z,136.70
2023-02-07T02:35:03.372Z,203.52
2023-02-07T02:36:16.997Z,87.78
2023-02-07T02:37:25.319Z,86.13
2023-02-07T02:38:36.333Z,112.20
2023-02-07T02:39:43.682Z,88.60
2023-02-07T02:40:54.934Z,135.07
2023-02-07T02:42:01.840Z,89.20
2023-02-07T02:43:12.371Z,110.32
2023-02-07T02:44:18.686Z,92.85
2023-02-07T02:45:30.471Z,104.20
2023-02-07T02:46:36.153Z,98.45
2023-02-07T02:47:45.825Z,84.25
2023-02-07T02:48:51.656Z,74.75
2023-02-07T02:49:56.144Z,78.18
2023-02-07T02:50:58.418Z,85.60
2023-02-07T02:52:03.597Z,107.57
2023-02-07T02:53:06.196Z,72.82
2023-02-07T02:54:32.411Z,72.75
2023-02-07T02:55:56.743Z,103.88
2023-02-07T02:57:32.171Z,98.40
2023-02-07T02:58:42.884Z,120.10
2023-02-07T03:00:01.875Z,109.68
2023-02-07T03:01:14.323Z,77.55
2023-02-07T03:02:29.969Z,74.95
2023-02-07T03:03:58.217Z,98.85
2023-02-07T03:05:15.241Z,91.38
2023-02-07T03:06:32.213Z,139.52
2023-02-07T03:07:52.974Z,92.28
2023-02-07T03:09:06.282Z,81.57
2023-02-07T03:10:20.426Z,108.32
2023-02-07T03:11:24.039Z,114.43
2023-02-07T03:12:34.176Z,127.60
2023-02-07T03:13:48.095Z,114.38
2023-02-07T03:15:02.128Z,68.97
2023-02-07T03:16:13.816Z,79.35
2023-02-07T03:17:22.647Z,78.07
2023-02-07T03:18:32.101Z,191.05
2023-02-07T03:19:43.724Z,93.80
2023-02-07T03:20:51.849Z,83.90
2023-02-07T03:21:57.985Z,79.78
2023-02-07T03:23:05.092Z,92.82
2023-02-07T03:24:13.458Z,78.65
2023-02-07T03:25:19.930Z,86.15
2023-02-07T03:26:25.171Z,120.57
2023-02-07T03:27:32.998Z,99.80
2023-02-07T03:28:37.614Z,92.78
2023-02-07T03:29:45.616Z,75.80
2023-02-07T03:30:50.774Z,95.30
2023-02-07T03:32:00.078Z,94.60
2023-02-07T03:33:11.825Z,80.97
2023-02-07T03:34:20.759Z,85.28
2023-02-07T03:35:29.906Z,94.00
2023-02-07T03:36:41.649Z,111.65
2023-02-07T03:37:48.961Z,106.13
2023-02-07T03:38:54.164Z,80.22
2023-02-07T03:39:56.882Z,117.00
2023-02-07T03:41:09.122Z,156.95
2023-02-07T03:42:19.534Z,80.43
2023-02-07T03:43:27.485Z,72.22
2023-02-07T03:44:35.846Z,83.35
2023-02-07T03:45:38.697Z,108.43
2023-02-07T03:46:43.823Z,64.68
2023-02-07T03:47:46.044Z,75.85
2023-02-07T03:48:50.565Z,78.95
2023-02-07T03:49:52.598Z,71.25
2023-02-07T03:50:59.721Z,68.25
2023-02-07T03:52:01.857Z,83.32
2023-02-07T03:53:06.590Z,66.38
2023-02-07T03:54:08.978Z,73.50
2023-02-07T03:55:13.723Z,65.32
2023-02-07T03:56:15.642Z,81.45
2023-02-07T03:57:20.326Z,64.40
2023-02-07T03:58:22.322Z,86.40
2023-02-07T03:59:26.850Z,75.53
2023-02-07T04:00:28.827Z,87.65
2023-02-07T04:01:33.597Z,86.60
2023-02-07T04:02:35.529Z,85.18
2023-02-07T04:03:40.316Z,94.65
2023-02-07T04:04:42.455Z,67.20
2023-02-07T04:05:49.577Z,68.15
2023-02-07T04:06:54.106Z,67.65
2023-02-07T04:07:58.701Z,78.35
2023-02-07T04:09:00.730Z,63.72
2023-02-07T04:10:05.600Z,58.60
2023-02-07T04:11:07.644Z,62.78
2023-02-07T04:12:12.233Z,60.88
2023-02-07T04:13:14.258Z,60.08
2023-02-07T04:14:20.046Z,53.70
2023-02-07T04:15:22.055Z,77.97
2023-02-07T04:16:26.661Z,100.63
2023-02-07T04:17:31.153Z,79.10
2023-02-07T04:18:36.439Z,83.65
2023-02-07T04:19:38.424Z,97.13
2023-02-07T04:20:42.953Z,111.50
2023-02-07T04:21:45.160Z,61.78
2023-02-07T04:22:52.287Z,74.60
2023-02-07T04:23:54.251Z,111.05
2023-02-07T04:24:58.795Z,78.95
2023-02-07T04:26:00.867Z,75.45
2023-02-07T04:27:05.377Z,110.13
2023-02-07T04:28:07.546Z,77.63
2023-02-07T04:29:12.585Z,76.55
2023-02-07T04:30:17.131Z,113.97
2023-02-07T04:31:19.121Z,93.15
2023-02-07T04:32:23.667Z,73.88
2023-02-07T04:33:25.656Z,106.18
2023-02-07T04:34:30.262Z,81.65
2023-02-07T04:35:32.284Z,67.13
2023-02-07T04:36:36.873Z,148.65
2023-02-07T04:37:38.979Z,80.18
2023-02-07T04:38:46.137Z,60.33
2023-02-07T04:39:48.154Z,66.50
2023-02-07T04:40:52.814Z,98.38
2023-02-07T04:41:55.094Z,118.47
2023-02-07T04:42:59.678Z,63.88
2023-02-07T04:44:01.643Z,53.75
2023-02-07T04:45:06.287Z,61.17
2023-02-07T04:46:08.683Z,50.38
2023-02-07T04:47:13.265Z,51.92
2023-02-07T04:48:15.359Z,49.90
2023-02-07T04:49:20.211Z,62.55
2023-02-07T04:50:22.218Z,76.70
2023-02-07T04:51:26.797Z,60.17
2023-02-07T04:52:28.815Z,57.58
2023-02-07T04:53:33.306Z,101.22
2023-02-07T04:54:37.861Z,69.80
2023-02-07T04:55:42.383Z,70.03
2023-02-07T04:56:44.320Z,90.18
2023-02-07T04:57:49.132Z,61.92
2023-02-07T04:58:51.092Z,64.82
2023-02-07T04:59:56.003Z,51.67
2023-02-07T05:00:58.143Z,43.17
2023-02-07T05:02:02.650Z,42.05
2023-02-07T05:03:07.416Z,53.25
2023-02-07T05:04:09.445Z,45.78
2023-02-07T05:05:14.017Z,52.47
2023-02-07T05:06:15.960Z,53.55
2023-02-07T05:07:20.752Z,44.95
2023-02-07T05:08:22.958Z,47.70
2023-02-07T05:09:28.218Z,59.55
2023-02-07T05:10:32.837Z,65.85
2023-02-07T05:11:37.450Z,77.90
2023-02-07T05:12:39.447Z,60.45
2023-02-07T05:13:43.958Z,47.30
2023-02-07T05:14:46.028Z,41.85
2023-02-07T05:15:50.648Z,72.85
2023-02-07T05:16:52.590Z,45.47
2023-02-07T05:17:58.713Z,47.38
2023-02-07T05:19:03.275Z,54.97
2023-02-07T05:20:05.958Z,43.70
2023-02-07T05:21:11.452Z,37.10
2023-02-07T05:22:13.771Z,69.05
2023-02-07T05:23:18.729Z,51.85
2023-02-07T05:24:21.096Z,39.03
2023-02-07T05:25:25.834Z,44.63
2023-02-07T05:26:30.381Z,78.97
2023-02-07T05:27:34.935Z,55.63
2023-02-07T05:28:39.445Z,66.75
2023-02-07T05:29:41.395Z,64.18
2023-02-07T05:30:46.173Z,64.55
2023-02-07T05:32:04.741Z,50.13
2023-02-07T05:33:08.822Z,41.10
2023-02-07T05:34:13.373Z,43.92
2023-02-07T05:35:15.820Z,103.40
2023-02-07T05:36:20.346Z,64.80
2023-02-07T05:37:22.369Z,61.67
2023-02-07T05:38:26.904Z,56.15
2023-02-07T05:39:28.998Z,92.25
2023-02-07T05:40:33.863Z,64.93
2023-02-07T05:41:38.396Z,77.18
2023-02-07T05:42:43.446Z,193.38
2023-02-07T05:43:45.428Z,86.80
2023-02-07T05:44:49.969Z,68.35
2023-02-07T05:45:51.914Z,62.15
2023-02-07T05:46:56.481Z,70.95
2023-02-07T05:47:58.803Z,62.25
2023-02-07T05:49:03.330Z,66.35
2023-02-07T05:50:08.304Z,58.47
2023-02-07T05:51:12.863Z,61.28
2023-02-07T05:52:15.028Z,83.38
2023-02-07T05:53:19.718Z,82.68
2023-02-07T05:54:21.921Z,65.05
2023-02-07T05:55:26.560Z,78.45
2023-02-07T05:56:28.470Z,95.38
2023-02-07T05:57:35.927Z,92.15
2023-02-07T05:58:37.887Z,80.22
2023-02-07T05:59:42.397Z,82.55
2023-02-07T06:00:44.578Z,74.68
2023-02-07T06:01:49.086Z,72.90
2023-02-07T06:02:51.119Z,66.28
2023-02-07T06:03:55.836Z,98.28
2023-02-07T06:04:57.768Z,77.78
2023-02-07T06:06:02.335Z,88.68
2023-02-07T06:07:04.382Z,66.80
2023-02-07T06:08:08.919Z,82.32
2023-02-07T06:09:10.882Z,83.38
2023-02-07T06:10:16.508Z,60.03
2023-02-07T06:11:18.439Z,87.38
2023-02-07T06:12:22.933Z,61.80
2023-02-07T06:13:27.485Z,66.15
2023-02-07T06:14:32.053Z,101.55
2023-02-07T06:15:34.078Z,73.70
2023-02-07T06:16:38.679Z,77.90
2023-02-07T06:17:40.627Z,158.68
2023-02-07T06:18:45.224Z,75.13
2023-02-07T06:19:47.158Z,74.97
2023-02-07T06:20:53.109Z,53.97
2023-02-07T06:21:55.129Z,83.05
2023-02-07T06:22:59.711Z,62.75
2023-02-07T06:24:01.682Z,59.63
2023-02-07T06:25:08.449Z,54.50
2023-02-07T06:26:10.411Z,76.75
2023-02-07T06:27:14.932Z,69.03
2023-02-07T06:28:16.910Z,69.10
2023-02-07T06:29:24.452Z,66.47
2023-02-07T06:30:26.769Z,76.30
2023-02-07T06:31:31.331Z,72.57
2023-02-07T06:32:36.048Z,74.63
2023-02-07T06:33:38.047Z,83.50
2023-02-07T06:34:42.579Z,97.93
2023-02-07T06:35:47.449Z,61.10
2023-02-07T06:36:52.020Z,65.00
2023-02-07T06:37:55.169Z,60.65
2023-02-07T06:39:00.480Z,58.22
2023-02-07T06:40:03.405Z,53.65
2023-02-07T06:41:11.035Z,55.75
2023-02-07T06:42:15.607Z,47.67
2023-02-07T06:43:17.848Z,67.75
2023-02-07T06:44:25.115Z,58.97
2023-02-07T06:45:27.179Z,74.45
2023-02-07T06:46:32.025Z,84.97
2023-02-07T06:47:34.169Z,81.95
2023-02-07T06:48:38.720Z,92.53
2023-02-07T06:49:43.513Z,82.25
2023-02-07T06:50:45.542Z,55.85
2023-02-07T06:51:50.014Z,62.08
2023-02-07T06:52:51.986Z,46.95
2023-02-07T06:53:56.523Z,58.65
2023-02-07T06:55:01.062Z,66.95
2023-02-07T06:56:03.505Z,65.65
2023-02-07T06:57:08.468Z,48.85
2023-02-07T06:58:10.921Z,54.95
2023-02-07T06:59:15.527Z,62.63
2023-02-07T07:00:22.022Z,51.70
2023-02-07T07:01:26.656Z,59.75
2023-02-07T07:02:28.664Z,76.53
2023-02-07T07:03:33.404Z,62.40
2023-02-07T07:04:37.915Z,72.32
2023-02-07T07:05:40.038Z,73.95
2023-02-07T07:06:44.640Z,75.55
2023-02-07T07:07:46.737Z,75.72
2023-02-07T07:08:51.886Z,56.65
2023-02-07T07:09:56.490Z,66.50
2023-02-07T07:10:58.539Z,95.18
2023-02-07T07:12:04.733Z,56.78
2023-02-07T07:13:09.327Z,63.45
2023-02-07T07:14:14.790Z,112.93
2023-02-07T07:15:19.586Z,88.53
2023-02-07T07:16:24.242Z,92.50
2023-02-07T07:17:26.607Z,97.28
2023-02-07T07:18:31.190Z,110.72
2023-02-07T07:19:35.698Z,121.90
2023-02-07T07:20:37.635Z,134.85
2023-02-07T07:21:42.148Z,114.82
2023-02-07T07:22:47.275Z,90.60
2023-02-07T07:23:49.228Z,66.60
2023-02-07T07:24:53.844Z,71.55
2023-02-07T07:25:55.762Z,66.05
2023-02-07T07:27:00.267Z,97.60
2023-02-07T07:28:02.306Z,84.55
2023-02-07T07:29:08.382Z,72.20
2023-02-07T07:30:14.559Z,72.60
2023-02-07T07:31:21.723Z,61.90
2023-02-07T07:32:33.623Z,77.30
2023-02-07T07:33:39.302Z,79.88
2023-02-07T07:34:41.393Z,96.70
2023-02-07T07:35:46.168Z,157.38
2023-02-07T07:36:50.725Z,75.00
2023-02-07T07:37:52.681Z,66.40
2023-02-07T07:38:57.243Z,82.10
2023-02-07T07:40:01.960Z,79.40
2023-02-07T07:41:06.957Z,64.88
2023-02-07T07:42:11.486Z,61.28
2023-02-07T07:43:13.434Z,59.53
2023-02-07T07:44:18.056Z,112.93
2023-02-07T07:45:22.677Z,68.00
2023-02-07T07:46:29.897Z,72.53
2023-02-07T07:47:31.864Z,71.60
2023-02-07T07:48:36.435Z,84.05
2023-02-07T07:49:38.359Z,67.68
2023-02-07T07:50:42.987Z,62.50
2023-02-07T07:51:47.608Z,66.57
2023-02-07T07:52:52.124Z,70.78
2023-02-07T07:53:56.641Z,58.95
2023-02-07T07:55:01.276Z,71.55
2023-02-07T07:56:03.708Z,69.50
2023-02-07T07:57:08.220Z,70.90
2023-02-07T07:58:12.720Z,101.03
2023-02-07T07:59:24.001Z,62.08
2023-02-07T08:00:28.984Z,112.03
2023-02-07T08:01:36.351Z,90.93
2023-02-07T08:02:38.381Z,112.85
2023-02-07T08:03:42.933Z,133.18
2023-02-07T08:04:47.609Z,108.00
2023-02-07T08:05:52.821Z,96.20
2023-02-07T08:06:57.646Z,98.68
2023-02-07T08:08:02.190Z,90.82
2023-02-07T08:09:06.864Z,73.22
2023-02-07T08:10:11.830Z,129.63
2023-02-07T08:11:16.368Z,59.17
2023-02-07T08:12:21.238Z,68.47
2023-02-07T08:13:29.436Z,50.92
2023-02-07T08:14:31.687Z,68.55
2023-02-07T08:15:36.301Z,65.13
2023-02-07T08:16:43.380Z,43.30
2023-02-07T08:17:45.417Z,37.80
2023-02-07T08:18:49.975Z,55.35
2023-02-07T08:19:54.446Z,44.95
2023-02-07T08:20:59.452Z,69.80
2023-02-07T08:22:01.441Z,54.05
2023-02-07T08:23:06.155Z,40.42
2023-02-07T08:24:11.076Z,46.45
2023-02-07T08:25:13.201Z,58.63
2023-02-07T08:26:17.726Z,62.25
2023-02-07T08:27:19.864Z,53.13
2023-02-07T08:28:24.903Z,47.00
2023-02-07T08:29:29.479Z,44.60
2023-02-07T08:30:34.003Z,62.75
2023-02-07T08:31:38.602Z,72.38
2023-02-07T08:32:45.719Z,63.58
2023-02-07T08:33:47.651Z,42.92
2023-02-07T08:34:52.216Z,90.35
2023-02-07T08:35:54.259Z,40.08
2023-02-07T08:36:58.747Z,52.88
2023-02-07T08:38:03.361Z,65.85
2023-02-07T08:39:08.034Z,40.63
2023-02-07T08:40:13.608Z,49.13
2023-02-07T08:41:18.088Z,57.05
2023-02-07T08:42:23.279Z,58.22
2023-02-07T08:43:27.864Z,48.05
2023-02-07T08:44:32.654Z,73.00
2023-02-07T08:45:37.174Z,100.07
2023-02-07T08:46:41.750Z,107.50
2023-02-07T08:47:48.965Z,82.13
2023-02-07T08:48:51.030Z,42.38
2023-02-07T08:49:55.588Z,59.80
2023-02-07T08:51:00.101Z,48.13
2023-02-07T08:52:02.014Z,55.53
2023-02-07T08:53:06.533Z,77.20
2023-02-07T08:54:11.120Z,69.13
2023-02-07T08:55:15.628Z,61.47
2023-02-07T08:56:17.566Z,66.03
2023-02-07T08:57:23.246Z,54.40
2023-02-07T08:58:28.042Z,38.67
2023-02-07T08:59:32.601Z,48.55
2023-02-07T09:00:37.712Z,66.72
2023-02-07T09:01:42.722Z,53.13
2023-02-07T09:02:49.853Z,59.42
2023-02-07T09:03:56.952Z,51.97
2023-02-07T09:05:01.608Z,49.67
2023-02-07T09:06:06.766Z,91.88
2023-02-07T09:07:09.013Z,174.38
2023-02-07T09:08:13.576Z,107.32
2023-02-07T09:09:18.813Z,60.83
2023-02-07T09:10:23.637Z,86.95
2023-02-07T09:11:28.276Z,56.47
2023-02-07T09:12:33.056Z,97.97
2023-02-07T09:13:38.100Z,26.27
2023-02-07T09:14:43.268Z,33.92
2023-02-07T09:15:45.167Z,41.10
2023-02-07T09:16:49.712Z,33.40
2023-02-07T09:17:57.270Z,51.03
2023-02-07T09:19:01.872Z,83.97
2023-02-07T09:20:07.538Z,74.47
2023-02-07T09:21:12.202Z,104.50
2023-02-07T09:22:17.550Z,115.13
2023-02-07T09:23:19.703Z,94.38
2023-02-07T09:24:25.873Z,129.00
2023-02-07T09:25:27.862Z,129.23
2023-02-07T09:26:34.383Z,160.55
2023-02-07T09:27:38.992Z,231.70
2023-02-07T09:28:43.500Z,163.05
2023-02-07T09:29:48.128Z,296.38
2023-02-07T09:30:50.790Z,193.35
2023-02-07T09:31:55.881Z,173.93
2023-02-07T09:33:00.668Z,151.23
2023-02-07T09:34:05.513Z,167.80
2023-02-07T09:35:11.068Z,164.52
2023-02-07T09:36:19.294Z,161.98
2023-02-07T09:37:24.673Z,135.43
2023-02-07T09:38:29.407Z,115.65
2023-02-07T09:39:34.762Z,189.07
2023-02-07T09:40:39.611Z,196.77
2023-02-07T09:41:52.915Z,210.38
2023-02-07T09:42:58.946Z,96.25
2023-02-07T09:44:13.060Z,203.38
2023-02-07T09:45:21.936Z,169.80
2023-02-07T09:46:31.435Z,240.88
2023-02-07T09:47:40.087Z,257.20
2023-02-07T09:48:51.041Z,330.50
2023-02-07T09:49:59.996Z,209.60
2023-02-07T09:51:05.442Z,121.72
2023-02-07T09:52:15.356Z,177.15
2023-02-07T09:53:25.800Z,392.77
2023-02-07T09:54:36.137Z,91.30
2023-02-07T09:55:50.233Z,150.32
2023-02-07T09:56:57.123Z,154.75
2023-02-07T09:58:09.123Z,94.53
2023-02-07T09:59:25.329Z,234.05
2023-02-07T10:00:32.924Z,117.53
2023-02-07T10:01:42.824Z,295.02
2023-02-07T10:02:49.006Z,207.90
2023-02-07T10:04:16.464Z,117.68
2023-02-07T10:05:23.644Z,189.02
2023-02-07T10:06:30.526Z,281.73
2023-02-07T10:07:35.406Z,262.02
2023-02-07T10:08:41.214Z,482.48
2023-02-07T10:09:48.915Z,248.38
2023-02-07T10:11:06.006Z,235.20
2023-02-07T10:12:33.187Z,213.80
2023-02-07T10:13:58.481Z,292.88
2023-02-07T10:15:26.034Z,413.90
2023-02-07T10:16:48.862Z,178.55
2023-02-07T10:18:08.114Z,134.13
2023-02-07T10:19:26.800Z,206.88
2023-02-07T10:20:40.021Z,102.63
2023-02-07T10:21:53.023Z,159.57
2023-02-07T10:23:11.002Z,126.22
2023-02-07T10:24:38.243Z,130.27
2023-02-07T10:25:53.629Z,232.40
2023-02-07T10:27:03.203Z,135.30
2023-02-07T10:28:33.303Z,154.50
2023-02-07T10:29:51.347Z,247.40
2023-02-07T10:31:00.252Z,158.43
2023-02-07T10:32:14.087Z,135.65
2023-02-07T10:33:20.526Z,82.97
2023-02-07T10:34:31.379Z,128.93
2023-02-07T10:35:39.636Z,159.88
2023-02-07T10:36:49.426Z,173.98
2023-02-07T10:37:58.585Z,111.95
2023-02-07T10:39:09.843Z,66.68
2023-02-07T10:40:20.222Z,121.78
2023-02-07T10:41:26.965Z,129.35
2023-02-07T10:42:34.257Z,275.40
2023-02-07T10:43:36.531Z,233.68
2023-02-07T10:44:41.099Z,187.57
2023-02-07T10:45:49.842Z,243.23
2023-02-07T10:47:01.866Z,87.65
2023-02-07T10:48:16.043Z,124.68
2023-02-07T10:49:25.450Z,100.65
2023-02-07T10:50:33.300Z,101.97
2023-02-07T10:51:39.961Z,148.93
2023-02-07T10:52:49.813Z,145.52
2023-02-07T10:54:07.693Z,128.70
2023-02-07T10:55:16.633Z,123.82
2023-02-07T10:56:21.549Z,174.07
2023-02-07T10:57:27.102Z,161.32
2023-02-07T10:58:41.948Z,156.55
2023-02-07T10:59:49.101Z,260.42
2023-02-07T11:00:55.627Z,113.93
2023-02-07T11:01:57.893Z,87.78
2023-02-07T11:03:06.571Z,74.63
2023-02-07T11:04:25.421Z,75.78
2023-02-07T11:05:41.373Z,177.05
2023-02-07T11:06:46.074Z,170.02
2023-02-07T11:07:57.122Z,106.25
2023-02-07T11:09:24.308Z,80.30
2023-02-07T11:10:28.794Z,125.85
2023-02-07T11:11:36.988Z,81.95
2023-02-07T11:12:48.632Z,123.88
2023-02-07T11:15:04.904Z,130.18
2023-02-07T11:16:11.882Z,125.10
2023-02-07T11:17:23.894Z,90.70
2023-02-07T11:18:37.822Z,66.32
2023-02-07T11:19:42.718Z,125.45
2023-02-07T11:20:56.136Z,116.90
2023-02-07T11:22:20.351Z,53.47
2023-02-07T11:23:23.129Z,114.95
2023-02-07T11:24:31.282Z,117.22
2023-02-07T11:25:41.002Z,178.55
2023-02-07T11:26:57.252Z,140.45
2023-02-07T11:28:02.421Z,245.93
2023-02-07T11:29:17.632Z,81.00
2023-02-07T11:30:22.194Z,98.13
2023-02-07T11:31:34.830Z,110.28
2023-02-07T11:32:40.771Z,186.40
2023-02-07T11:33:45.880Z,205.85
2023-02-07T11:34:54.606Z,238.98
2023-02-07T11:36:14.018Z,158.02
2023-02-07T11:37:26.102Z,98.60
2023-02-07T11:38:32.496Z,118.05
2023-02-07T11:39:37.130Z,149.88
2023-02-07T11:40:47.654Z,139.15
2023-02-07T11:41:58.170Z,78.35
2023-02-07T11:43:06.360Z,182.68
2023-02-07T11:44:19.522Z,121.80
2023-02-07T11:45:25.717Z,140.30
2023-02-07T11:46:38.371Z,218.48
2023-02-07T11:47:46.404Z,327.00
2023-02-07T11:48:54.819Z,188.23
2023-02-07T11:50:02.493Z,99.10
2023-02-07T11:51:12.407Z,146.30
2023-02-07T11:52:17.236Z,146.05
2023-02-07T11:53:24.679Z,117.18
2023-02-07T11:54:30.671Z,136.93
2023-02-07T11:55:35.825Z,121.25
2023-02-07T11:56:43.579Z,147.77
2023-02-07T11:57:49.125Z,149.60
2023-02-07T11:58:53.110Z,69.75
2023-02-07T12:00:10.783Z,86.97
2023-02-07T12:01:19.998Z,92.97
2023-02-07T12:02:28.814Z,93.32
2023-02-07T12:03:43.093Z,63.05
2023-02-07T12:04:47.895Z,85.50
2023-02-07T12:05:56.462Z,66.57
2023-02-07T12:07:08.053Z,36.60
2023-02-07T12:09:31.532Z,59.83
2023-02-07T12:10:39.744Z,76.28
2023-02-07T12:11:45.356Z,96.95
2023-02-07T12:12:50.098Z,137.85
2023-02-07T12:13:58.494Z,76.32
2023-02-07T12:15:09.264Z,69.68
2023-02-07T12:16:20.685Z,64.57
2023-02-07T12:17:33.399Z,70.68
2023-02-07T12:18:43.221Z,107.57
2023-02-07T12:19:52.921Z,71.90
2023-02-07T12:21:04.985Z,83.10
2023-02-07T12:22:19.547Z,77.68
2023-02-07T12:23:41.650Z,115.40
2023-02-07T12:24:52.567Z,119.38
2023-02-07T12:26:01.435Z,39.90
2023-02-07T12:27:14.788Z,51.00
2023-02-07T12:28:29.190Z,50.10
2023-02-07T12:29:47.053Z,70.47
2023-02-07T12:30:56.422Z,101.82
2023-02-07T12:32:07.927Z,66.82
2023-02-07T12:33:18.076Z,74.18
2023-02-07T12:34:30.312Z,53.00
2023-02-07T12:35:55.602Z,50.17
2023-02-07T12:37:06.391Z,74.60
2023-02-07T12:38:20.329Z,55.85
2023-02-07T12:39:34.221Z,65.47
2023-02-07T12:40:45.948Z,102.97
2023-02-07T12:41:56.731Z,107.13
2023-02-07T12:43:05.750Z,73.28
2023-02-07T12:44:22.361Z,72.55
2023-02-07T12:45:40.514Z,90.50
2023-02-07T12:46:54.166Z,139.13
2023-02-07T12:48:06.826Z,45.72
2023-02-07T12:49:28.565Z,56.90
2023-02-07T12:50:53.232Z,77.78
2023-02-07T12:52:11.095Z,140.95
2023-02-07T12:53:33.766Z,127.88
2023-02-07T12:54:52.225Z,64.85
2023-02-07T12:56:07.134Z,91.68
2023-02-07T12:57:15.631Z,58.90
2023-02-07T12:58:42.033Z,71.00
2023-02-07T12:59:57.680Z,95.32
2023-02-07T13:01:09.043Z,89.68
2023-02-07T13:02:31.735Z,99.57
2023-02-07T13:04:14.171Z,224.35
2023-02-07T13:05:53.826Z,83.95
2023-02-07T13:07:16.576Z,71.78
2023-02-07T13:08:34.945Z,78.00
2023-02-07T13:09:49.219Z,152.80
2023-02-07T13:11:03.000Z,49.33
2023-02-07T13:12:17.659Z,70.80
2023-02-07T13:13:26.596Z,72.57
2023-02-07T13:14:42.263Z,51.53
2023-02-07T13:15:55.203Z,130.50
2023-02-07T13:17:21.569Z,102.47
2023-02-07T13:18:37.640Z,128.15
2023-02-07T13:19:50.370Z,117.85
2023-02-07T13:21:04.241Z,72.78
2023-02-07T13:22:11.943Z,70.13
2023-02-07T13:23:20.749Z,112.53
2023-02-07T13:24:31.741Z,98.43
2023-02-07T13:25:38.975Z,41.05
2023-02-07T13:26:49.280Z,100.75
2023-02-07T13:27:57.526Z,64.38
2023-02-07T13:29:06.517Z,42.15
2023-02-07T13:30:17.859Z,53.88
2023-02-07T13:31:25.267Z,49.83
2023-02-07T13:32:28.519Z,51.28
2023-02-07T13:33:37.134Z,58.15
2023-02-07T13:34:47.882Z,97.07
2023-02-07T13:35:50.063Z,84.93
2023-02-07T13:36:58.733Z,84.68
2023-02-07T13:38:10.236Z,61.83
2023-02-07T13:39:28.470Z,64.45
2023-02-07T13:40:45.152Z,41.83
2023-02-07T13:42:00.518Z,58.35
2023-02-07T13:43:12.282Z,80.05
2023-02-07T13:45:38.072Z,71.63
2023-02-07T13:46:56.432Z,61.55
2023-02-07T13:48:08.785Z,36.13
2023-02-07T13:49:19.581Z,31.50
2023-02-07T13:50:38.977Z,33.23
2023-02-07T13:51:52.613Z,35.72
2023-02-07T13:53:05.905Z,36.30
2023-02-07T13:54:25.483Z,46.85
2023-02-07T13:55:37.726Z,51.38
2023-02-07T13:57:11.493Z,75.65
2023-02-07T13:58:58.389Z,34.63
2023-02-07T14:00:16.352Z,65.22
2023-02-07T14:01:23.723Z,82.40
2023-02-07T14:02:28.411Z,38.15
2023-02-07T14:03:35.367Z,37.53
2023-02-07T14:04:51.244Z,62.75
2023-02-07T14:05:55.984Z,47.65
2023-02-07T14:07:12.052Z,65.72
2023-02-07T14:08:25.116Z,101.25
2023-02-07T14:09:36.291Z,119.15
2023-02-07T14:10:45.852Z,136.90
2023-02-07T14:12:00.399Z,144.88
2023-02-07T14:13:02.805Z,141.68
2023-02-07T14:14:15.987Z,120.57
2023-02-07T14:15:56.415Z,92.53
2023-02-07T14:17:03.013Z,74.28
2023-02-07T14:18:28.456Z,70.20
2023-02-07T14:19:55.075Z,110.78
2023-02-07T14:21:01.601Z,100.85
2023-02-07T14:22:17.813Z,116.82
2023-02-07T14:23:23.093Z,88.47
2023-02-07T14:24:35.743Z,79.55
2023-02-07T14:25:44.806Z,153.25
2023-02-07T14:27:07.384Z,132.95
2023-02-07T14:29:41.820Z,245.18
2023-02-07T14:31:02.733Z,159.32